createdAt,value
2018-04-23T00:00:30.653Z,5.43
2018-04-23T00:02:58.182Z,5.17
2018-04-23T00:05:25.692Z,5.73
2018-04-23T00:07:53.212Z,5.43
2018-04-23T00:10:20.721Z,5.40
2018-04-23T00:12:48.235Z,5.57
2018-04-23T00:15:15.747Z,5.30
2018-04-23T00:17:43.262Z,5.40
2018-04-23T00:20:10.780Z,5.23
2018-04-23T00:22:38.304Z,5.57
2018-04-23T00:25:05.841Z,5.53
2018-04-23T00:27:33.368Z,4.90
2018-04-23T00:30:00.886Z,4.77
2018-04-23T00:32:28.440Z,5.10
2018-04-23T00:34:55.946Z,4.63
2018-04-23T00:37:23.463Z,4.97
2018-04-23T00:39:50.973Z,4.90
2018-04-23T00:42:18.492Z,4.17
2018-04-23T00:44:46.019Z,5.13
2018-04-23T00:47:13.527Z,4.50
2018-04-23T00:49:41.099Z,5.20
2018-04-23T00:52:08.607Z,5.00
2018-04-23T00:54:36.124Z,5.70
2018-04-23T00:57:03.640Z,5.80
2018-04-23T00:59:31.170Z,5.80
2018-04-23T01:01:58.698Z,5.67
2018-04-23T01:04:26.210Z,5.53
2018-04-23T01:06:53.715Z,5.50
2018-04-23T01:09:21.238Z,5.93
2018-04-23T01:11:48.761Z,5.40
2018-04-23T01:14:16.280Z,5.97
2018-04-23T01:16:43.811Z,5.87
2018-04-23T01:19:11.343Z,5.37
2018-04-23T01:21:38.856Z,6.10
2018-04-23T01:24:06.385Z,6.43
2018-04-23T01:26:33.905Z,6.07
2018-04-23T01:29:01.414Z,6.60
2018-04-23T01:31:28.943Z,6.57
2018-04-23T01:33:56.466Z,7.37
2018-04-23T01:36:23.984Z,7.77
2018-04-23T01:38:51.517Z,7.67
2018-04-23T01:41:19.034Z,7.07
2018-04-23T01:43:46.555Z,7.57
2018-04-23T01:46:14.076Z,7.03
2018-04-23T01:48:41.592Z,7.67
2018-04-23T01:51:09.112Z,6.90
2018-04-23T01:53:36.630Z,6.43
2018-04-23T01:56:04.158Z,7.80
2018-04-23T01:58:31.676Z,7.13
2018-04-23T02:00:59.201Z,6.30
2018-04-23T02:03:26.721Z,7.50
2018-04-23T02:05:54.244Z,8.03
2018-04-23T02:08:21.760Z,7.40
2018-04-23T02:10:49.285Z,7.50
2018-04-23T02:13:16.798Z,7.83
2018-04-23T02:15:44.312Z,7.27
2018-04-23T02:18:11.827Z,7.20
2018-04-23T02:20:39.342Z,7.63
2018-04-23T02:23:06.864Z,8.40
2018-04-23T02:25:34.388Z,8.70
2018-04-23T02:28:01.922Z,7.30
2018-04-23T02:30:29.453Z,7.40
2018-04-23T02:32:56.982Z,7.80
2018-04-23T02:35:24.506Z,7.97
2018-04-23T02:37:52.033Z,8.30
2018-04-23T02:40:19.563Z,8.57
2018-04-23T02:42:47.077Z,8.57
2018-04-23T02:45:14.639Z,8.03
2018-04-23T02:47:42.156Z,8.10
2018-04-23T02:50:09.696Z,8.17
2018-04-23T02:52:37.229Z,8.27
2018-04-23T02:55:04.764Z,8.50
2018-04-23T02:57:32.274Z,8.43
2018-04-23T02:59:59.800Z,8.47
2018-04-23T03:02:27.328Z,9.03
2018-04-23T03:04:54.836Z,8.30
2018-04-23T03:07:22.356Z,8.63
2018-04-23T03:09:49.863Z,7.90
2018-04-23T03:12:17.383Z,8.20
2018-04-23T03:14:44.887Z,8.20
2018-04-23T03:17:12.415Z,8.83
2018-04-23T03:19:39.941Z,9.03
2018-04-23T03:22:07.459Z,9.30
2018-04-23T03:24:34.991Z,9.13
2018-04-23T03:27:02.517Z,8.43
2018-04-23T03:29:30.045Z,8.37
2018-04-23T03:31:57.561Z,9.10
2018-04-23T03:34:25.079Z,9.27
2018-04-23T03:36:52.595Z,9.83
2018-04-23T03:39:20.112Z,9.50
2018-04-23T03:41:47.631Z,9.00
2018-04-23T03:44:15.164Z,9.67
2018-04-23T03:46:42.690Z,9.00
2018-04-23T03:49:10.215Z,9.80
2018-04-23T03:51:37.737Z,9.50
2018-04-23T03:54:05.267Z,8.40
2018-04-23T03:56:32.783Z,8.37
2018-04-23T03:59:00.341Z,8.87
2018-04-23T04:01:27.888Z,9.03
2018-04-23T04:03:55.497Z,9.07
2018-04-23T04:06:23.020Z,8.73
2018-04-23T04:08:50.550Z,8.00
2018-04-23T04:11:18.072Z,8.43
2018-04-23T04:13:57.454Z,8.17
2018-04-23T04:16:36.910Z,7.80
2018-04-23T04:19:04.490Z,8.07
2018-04-23T04:21:32.031Z,7.63
2018-04-23T04:24:00.478Z,9.00
2018-04-23T04:26:28.129Z,7.97
2018-04-23T04:28:55.651Z,7.70
2018-04-23T04:31:23.201Z,8.23
2018-04-23T04:33:50.776Z,8.97
2018-04-23T04:36:18.287Z,8.77
2018-04-23T04:38:45.822Z,8.63
2018-04-23T04:41:13.356Z,8.13
2018-04-23T04:43:40.887Z,9.37
2018-04-23T04:46:08.420Z,8.90
2018-04-23T04:48:35.955Z,8.90
2018-04-23T04:51:03.475Z,7.63
2018-04-23T04:53:31.004Z,8.17
2018-04-23T04:55:58.519Z,8.27
2018-04-23T04:58:26.038Z,7.90
2018-04-23T05:00:53.566Z,8.27
2018-04-23T05:03:21.079Z,8.37
2018-04-23T05:05:48.615Z,8.10
2018-04-23T05:08:16.133Z,7.60
2018-04-23T05:10:43.666Z,8.67
2018-04-23T05:13:11.188Z,7.50
2018-04-23T05:15:38.708Z,7.63
2018-04-23T05:18:06.239Z,8.47
2018-04-23T05:20:33.766Z,7.93
2018-04-23T05:23:01.296Z,7.10
2018-04-23T05:25:28.849Z,7.43
2018-04-23T05:27:56.403Z,7.43
2018-04-23T05:30:23.939Z,6.77
2018-04-23T05:32:52.797Z,7.23
2018-04-23T05:35:20.307Z,6.90
2018-04-23T05:37:47.829Z,7.10
2018-04-23T05:40:15.362Z,7.40
2018-04-23T05:42:42.893Z,7.93
2018-04-23T05:45:10.448Z,6.73
2018-04-23T05:47:37.977Z,6.83
2018-04-23T05:50:05.491Z,7.53
2018-04-23T05:52:33.012Z,7.87
2018-04-23T05:55:00.574Z,8.67
2018-04-23T05:57:28.084Z,6.93
2018-04-23T05:59:55.607Z,6.87
2018-04-23T06:02:23.122Z,6.67
2018-04-23T06:04:50.648Z,6.40
2018-04-23T06:07:18.193Z,6.73
2018-04-23T06:09:45.772Z,7.30
2018-04-23T06:12:13.301Z,6.90
2018-04-23T06:14:40.811Z,5.80
2018-04-23T06:17:08.353Z,6.57
2018-04-23T06:19:35.877Z,6.13
2018-04-23T06:22:03.400Z,6.10
2018-04-23T06:24:30.931Z,6.30
2018-04-23T06:26:58.458Z,6.00
2018-04-23T06:29:25.983Z,5.60
2018-04-23T06:31:53.510Z,6.87
2018-04-23T06:34:21.117Z,5.83
2018-04-23T06:36:48.593Z,6.73
2018-04-23T06:39:16.123Z,5.83
2018-04-23T06:41:43.680Z,5.50
2018-04-23T06:44:11.202Z,5.63
2018-04-23T06:46:38.720Z,5.10
2018-04-23T06:49:06.232Z,5.27
2018-04-23T06:51:33.754Z,5.47
2018-04-23T06:54:01.281Z,5.17
2018-04-23T06:56:28.792Z,4.87
2018-04-23T06:58:56.325Z,5.30
2018-04-23T07:01:23.848Z,5.00
2018-04-23T07:03:51.372Z,5.43
2018-04-23T07:06:18.903Z,5.30
2018-04-23T07:08:46.425Z,5.13
2018-04-23T07:11:13.935Z,4.83
2018-04-23T07:13:41.449Z,4.77
2018-04-23T07:16:08.973Z,5.20
2018-04-23T07:18:36.500Z,5.27
2018-04-23T07:21:04.017Z,5.00
2018-04-23T07:23:31.604Z,4.50
2018-04-23T07:25:59.120Z,4.83
2018-04-23T07:28:26.628Z,4.70
2018-04-23T07:30:54.155Z,4.63
2018-04-23T07:33:21.690Z,5.40
2018-04-23T07:35:49.215Z,4.80
2018-04-23T07:38:16.798Z,4.47
2018-04-23T07:40:44.449Z,3.90
2018-04-23T07:43:11.969Z,4.10
2018-04-23T07:45:39.487Z,4.40
2018-04-23T07:48:07.005Z,4.00
2018-04-23T07:50:34.580Z,3.80
2018-04-23T07:53:02.209Z,4.43
2018-04-23T07:55:29.880Z,3.80
2018-04-23T07:57:57.449Z,4.90
2018-04-23T08:00:24.990Z,4.17
2018-04-23T08:02:52.519Z,4.50
2018-04-23T08:05:20.069Z,4.47
2018-04-23T08:07:47.685Z,4.13
2018-04-23T08:10:15.234Z,3.83
2018-04-23T08:12:42.755Z,4.20
2018-04-23T08:15:10.304Z,3.90
2018-04-23T08:17:37.823Z,3.30
2018-04-23T08:20:05.355Z,3.70
2018-04-23T08:22:32.887Z,3.73
2018-04-23T08:25:00.420Z,3.77
2018-04-23T08:27:27.944Z,3.60
2018-04-23T08:29:55.464Z,3.40
2018-04-23T08:32:22.979Z,3.60
2018-04-23T08:34:50.505Z,3.60
2018-04-23T08:37:18.056Z,4.00
2018-04-23T08:39:45.572Z,3.00
2018-04-23T08:42:13.096Z,3.10
2018-04-23T08:44:40.627Z,3.57
2018-04-23T08:47:08.250Z,2.63
2018-04-23T08:49:35.818Z,3.70
2018-04-23T08:52:03.339Z,2.60
2018-04-23T08:54:30.859Z,3.50
2018-04-23T08:56:58.425Z,2.60
2018-04-23T08:59:25.984Z,2.50
2018-04-23T09:01:53.560Z,2.60
2018-04-23T09:04:21.096Z,2.30
2018-04-23T09:06:48.632Z,2.50
2018-04-23T09:09:16.147Z,2.57
2018-04-23T09:11:43.736Z,2.60
2018-04-23T09:14:11.261Z,2.60
2018-04-23T09:16:38.806Z,2.93
2018-04-23T09:19:06.324Z,2.97
2018-04-23T09:21:34.768Z,4.57
2018-04-23T09:24:02.293Z,3.37
2018-04-23T09:26:32.922Z,4.13
2018-04-23T09:31:42.923Z,3.37
2018-04-23T09:34:10.606Z,4.13
2018-04-23T09:36:38.157Z,4.00
2018-04-23T09:39:07.416Z,4.07
2018-04-23T09:41:34.977Z,4.00
2018-04-23T09:44:02.576Z,4.07
2018-04-23T09:46:30.136Z,4.37
2018-04-23T09:48:57.743Z,5.17
2018-04-23T09:51:25.297Z,5.20
2018-04-23T09:53:52.820Z,5.13
2018-04-23T09:56:20.380Z,5.50
2018-04-23T09:58:47.908Z,5.30
2018-04-23T10:01:20.319Z,4.47
2018-04-23T10:03:50.740Z,5.60
2018-04-23T10:06:18.284Z,6.10
2018-04-23T10:08:45.824Z,6.00
2018-04-23T10:11:13.358Z,6.00
2018-04-23T10:13:40.881Z,6.70
2018-04-23T10:16:08.416Z,7.23
2018-04-23T10:18:35.947Z,7.10
2018-04-23T10:21:03.549Z,7.73
2018-04-23T10:23:31.034Z,7.23
2018-04-23T10:25:58.565Z,7.17
2018-04-23T10:28:26.098Z,7.67
2018-04-23T10:30:53.621Z,6.80
2018-04-23T10:33:21.155Z,6.53
2018-04-23T10:35:48.715Z,7.03
2018-04-23T10:38:16.250Z,7.50
2018-04-23T10:40:43.776Z,7.33
2018-04-23T10:43:11.289Z,8.63
2018-04-23T10:45:38.809Z,7.27
2018-04-23T10:48:07.297Z,8.20
2018-04-23T10:50:34.824Z,9.13
2018-04-23T10:53:02.380Z,8.00
2018-04-23T10:55:29.920Z,8.20
2018-04-23T10:57:57.473Z,9.13
2018-04-23T11:00:25.039Z,8.07
2018-04-23T11:02:52.571Z,7.43
2018-04-23T11:05:20.101Z,7.63
2018-04-23T11:07:47.626Z,6.03
2018-04-23T11:10:15.175Z,5.90
2018-04-23T11:12:42.713Z,5.37
2018-04-23T11:15:10.239Z,5.97
2018-04-23T11:17:37.761Z,4.87
2018-04-23T11:20:05.387Z,5.17
2018-04-23T11:22:32.922Z,4.37
2018-04-23T11:25:00.477Z,5.63
2018-04-23T11:27:28.926Z,4.70
2018-04-23T11:29:56.515Z,5.27
2018-04-23T11:32:24.084Z,4.80
2018-04-23T11:34:51.591Z,5.70
2018-04-23T11:37:19.118Z,5.03
2018-04-23T11:39:46.670Z,4.87
2018-04-23T11:42:14.200Z,5.57
2018-04-23T11:44:41.731Z,5.80
2018-04-23T11:47:09.319Z,5.07
2018-04-23T11:49:36.848Z,5.40
2018-04-23T11:52:04.392Z,5.50
2018-04-23T11:54:31.924Z,5.53
2018-04-23T11:56:59.482Z,5.00
2018-04-23T11:59:27.058Z,5.70
2018-04-23T12:01:54.607Z,6.30
2018-04-23T12:04:22.133Z,6.40
2018-04-23T12:06:49.872Z,6.60
2018-04-23T12:09:17.619Z,6.97
2018-04-23T12:11:45.148Z,6.27
2018-04-23T12:14:12.762Z,6.87
2018-04-23T12:16:40.291Z,6.47
2018-04-23T12:19:07.835Z,6.40
2018-04-23T12:21:35.363Z,7.20
2018-04-23T12:24:02.925Z,6.30
2018-04-23T12:26:30.444Z,6.47
2018-04-23T12:28:57.992Z,7.30
2018-04-23T12:31:25.612Z,6.40
2018-04-23T12:33:53.207Z,7.13
2018-04-23T12:36:20.758Z,6.70
2018-04-23T12:38:48.309Z,7.07
2018-04-23T12:41:15.846Z,7.40
2018-04-23T12:43:43.368Z,7.10
2018-04-23T12:46:10.893Z,7.23
2018-04-23T12:48:38.460Z,6.37
2018-04-23T12:51:05.994Z,7.47
2018-04-23T12:53:33.533Z,6.80
2018-04-23T12:56:01.062Z,7.00
2018-04-23T12:58:28.593Z,6.33
2018-04-23T13:00:56.216Z,5.90
2018-04-23T13:03:23.745Z,5.77
2018-04-23T13:05:51.286Z,6.90
2018-04-23T13:08:18.820Z,7.27
2018-04-23T13:10:46.356Z,7.00
2018-04-23T13:13:13.948Z,6.50
2018-04-23T13:15:41.475Z,6.07
2018-04-23T13:18:08.990Z,6.30
2018-04-23T13:20:36.532Z,6.67
2018-04-23T13:23:04.094Z,6.57
2018-04-23T13:25:31.737Z,6.80
2018-04-23T13:27:59.275Z,5.93
2018-04-23T13:30:26.801Z,6.70
2018-04-23T13:32:54.325Z,7.37
2018-04-23T13:35:21.849Z,7.83
2018-04-23T13:37:49.416Z,7.60
2018-04-23T13:40:16.939Z,7.17
2018-04-23T13:42:44.460Z,8.10
2018-04-23T13:45:12.024Z,6.93
2018-04-23T13:47:39.550Z,6.77
2018-04-23T13:50:07.093Z,7.40
2018-04-23T13:52:34.683Z,7.10
2018-04-23T13:55:02.327Z,7.50
2018-04-23T13:57:29.860Z,7.07
2018-04-23T13:59:57.389Z,7.60
2018-04-23T14:02:24.909Z,7.70
2018-04-23T14:04:52.445Z,8.43
2018-04-23T14:07:19.954Z,7.57
2018-04-23T14:09:47.583Z,7.80
2018-04-23T14:12:15.145Z,8.13
2018-04-23T14:14:42.678Z,7.70
2018-04-23T14:17:10.197Z,6.47
2018-04-23T14:19:37.716Z,6.93
2018-04-23T14:22:05.256Z,7.13
2018-04-23T14:24:32.779Z,6.20
2018-04-23T14:27:00.285Z,6.30
2018-04-23T14:29:27.836Z,5.90
2018-04-23T14:31:55.368Z,6.00
2018-04-23T14:34:23.014Z,6.20
2018-04-23T14:36:50.539Z,6.10
2018-04-23T14:39:18.073Z,6.73
2018-04-23T14:41:45.597Z,5.53
2018-04-23T14:44:13.123Z,5.47
2018-04-23T14:46:40.838Z,4.93
2018-04-23T14:49:08.760Z,4.90
2018-04-23T14:51:36.737Z,4.33
2018-04-23T14:54:04.499Z,4.43
2018-04-23T14:56:32.565Z,3.97
2018-04-23T14:59:00.173Z,4.60
2018-04-23T15:01:27.712Z,4.63
2018-04-23T15:03:55.351Z,4.80
2018-04-23T15:06:22.871Z,4.03
2018-04-23T15:08:50.447Z,3.33
2018-04-23T15:11:17.972Z,3.70
2018-04-23T15:13:45.490Z,3.60
2018-04-23T15:16:13.002Z,3.63
2018-04-23T15:18:40.514Z,3.67
2018-04-23T15:21:08.028Z,3.63
2018-04-23T15:23:35.611Z,3.50
2018-04-23T15:26:03.141Z,4.07
2018-04-23T15:28:30.735Z,3.67
2018-04-23T15:30:58.243Z,3.00
2018-04-23T15:33:25.764Z,3.10
2018-04-23T15:35:53.280Z,3.30
2018-04-23T15:38:20.872Z,3.17
2018-04-23T15:40:48.429Z,3.10
2018-04-23T15:43:15.957Z,3.43
2018-04-23T15:45:43.538Z,2.93
2018-04-23T15:48:11.120Z,3.47
2018-04-23T15:50:38.674Z,2.90
2018-04-23T15:53:06.196Z,2.60
2018-04-23T15:55:33.718Z,2.67
2018-04-23T15:58:01.348Z,2.47
2018-04-23T16:00:28.860Z,2.10
2018-04-23T16:02:56.471Z,2.60
2018-04-23T16:05:24.029Z,2.50
2018-04-23T16:07:51.577Z,3.13
2018-04-23T16:10:19.099Z,2.30
2018-04-23T16:12:46.713Z,2.60
2018-04-23T16:15:14.272Z,2.23
2018-04-23T16:17:41.783Z,2.80
2018-04-23T16:20:09.864Z,2.33
2018-04-23T16:22:37.421Z,2.40
2018-04-23T16:25:04.943Z,2.33
2018-04-23T16:27:32.454Z,3.00
2018-04-23T16:30:00.010Z,2.43
2018-04-23T16:32:27.544Z,2.80
2018-04-23T16:34:55.090Z,2.83
2018-04-23T16:37:22.641Z,2.73
2018-04-23T16:39:50.174Z,2.37
2018-04-23T16:42:17.722Z,2.57
2018-04-23T16:44:50.540Z,2.30
2018-04-23T16:47:12.784Z,2.50
2018-04-23T16:49:40.311Z,2.70
2018-04-23T16:52:07.863Z,2.70
2018-04-23T16:54:35.381Z,3.07
2018-04-23T16:57:02.894Z,2.53
2018-04-23T16:59:30.421Z,2.47
2018-04-23T17:01:58.196Z,2.83
2018-04-23T17:04:25.709Z,2.40
2018-04-23T17:06:53.237Z,2.30
2018-04-23T17:09:20.808Z,2.67
2018-04-23T17:11:48.343Z,2.70
2018-04-23T17:14:15.881Z,2.17
2018-04-23T17:16:43.398Z,2.60
2018-04-23T17:19:10.940Z,2.30
2018-04-23T17:21:38.473Z,2.60
2018-04-23T17:24:05.983Z,2.60
2018-04-23T17:26:33.507Z,2.33
2018-04-23T17:29:01.243Z,2.80
2018-04-23T17:31:28.808Z,2.53
2018-04-23T17:33:56.332Z,2.87
2018-04-23T17:36:23.883Z,2.70
2018-04-23T17:38:51.418Z,2.60
2018-04-23T17:41:18.952Z,2.80
2018-04-23T17:43:46.481Z,2.80
2018-04-23T17:46:14.095Z,2.90
2018-04-23T17:48:41.606Z,3.33
2018-04-23T17:51:09.113Z,3.17
2018-04-23T17:53:36.674Z,2.60
2018-04-23T17:56:04.186Z,3.10
2018-04-23T17:58:31.744Z,2.63
2018-04-23T18:00:59.341Z,2.70
2018-04-23T18:03:26.866Z,3.03
2018-04-23T18:05:54.404Z,2.50
2018-04-23T18:08:21.915Z,3.00
2018-04-23T18:10:49.431Z,3.03
2018-04-23T18:13:16.980Z,2.93
2018-04-23T18:15:44.493Z,3.00
2018-04-23T18:18:12.384Z,3.00
2018-04-23T18:20:39.935Z,3.07
2018-04-23T18:23:07.461Z,3.00
2018-04-23T18:25:34.979Z,3.07
2018-04-23T18:28:02.622Z,2.80
2018-04-23T18:30:30.144Z,3.13
2018-04-23T18:32:57.654Z,3.10
2018-04-23T18:35:25.277Z,3.00
2018-04-23T18:37:52.789Z,3.03
2018-04-23T18:40:20.298Z,3.40
2018-04-23T18:42:47.804Z,3.20
2018-04-23T18:45:15.372Z,3.60
2018-04-23T18:47:42.856Z,4.30
2018-04-23T18:50:10.430Z,3.57
2018-04-23T18:52:37.935Z,3.50
2018-04-23T18:55:05.555Z,3.43
2018-04-23T18:57:33.114Z,3.60
2018-04-23T19:00:00.631Z,4.03
2018-04-23T19:02:28.147Z,4.47
2018-04-23T19:04:55.679Z,4.40
2018-04-23T19:07:23.202Z,4.17
2018-04-23T19:09:50.713Z,4.20
2018-04-23T19:12:18.246Z,3.97
2018-04-23T19:14:45.781Z,4.90
2018-04-23T19:17:13.402Z,4.70
2018-04-23T19:19:40.946Z,5.27
2018-04-23T19:22:08.514Z,5.20
2018-04-23T19:24:36.053Z,4.83
2018-04-23T19:27:03.613Z,4.33
2018-04-23T19:29:31.130Z,5.30
2018-04-23T19:31:58.643Z,5.20
2018-04-23T19:34:26.180Z,4.97
2018-04-23T19:36:53.710Z,5.00
2018-04-23T19:39:21.344Z,4.73
2018-04-23T19:41:48.901Z,5.60
2018-04-23T19:44:16.428Z,5.10
2018-04-23T19:46:43.938Z,4.67
2018-04-23T19:49:11.566Z,5.03
2018-04-23T19:51:39.142Z,5.50
2018-04-23T19:54:06.655Z,5.57
2018-04-23T19:56:34.307Z,5.60
2018-04-23T19:59:01.936Z,5.70
2018-04-23T20:01:29.449Z,5.23
2018-04-23T20:03:57.029Z,5.53
2018-04-23T20:06:24.539Z,5.67
2018-04-23T20:08:52.058Z,6.57
2018-04-23T20:11:27.438Z,5.60
2018-04-23T20:13:56.824Z,5.03
2018-04-23T20:16:24.522Z,5.37
2018-04-23T20:18:52.053Z,5.30
2018-04-23T20:21:19.583Z,5.43
2018-04-23T20:23:47.094Z,5.73
2018-04-23T20:26:14.606Z,6.17
2018-04-23T20:28:42.114Z,5.40
2018-04-23T20:31:09.651Z,5.33
2018-04-23T20:33:37.280Z,5.83
2018-04-23T20:36:04.831Z,5.53
2018-04-23T20:38:32.340Z,6.10
2018-04-23T20:40:59.849Z,5.10
2018-04-23T20:43:27.418Z,5.77
2018-04-23T20:45:54.930Z,5.60
2018-04-23T20:48:22.460Z,6.30
2018-04-23T20:50:49.985Z,6.53
2018-04-23T20:53:17.500Z,5.90
2018-04-23T20:55:45.019Z,5.70
2018-04-23T20:58:12.543Z,6.93
2018-04-23T21:00:40.061Z,6.70
2018-04-23T21:03:07.599Z,6.10
2018-04-23T21:05:35.155Z,6.13
2018-04-23T21:08:02.681Z,6.20
2018-04-23T21:10:30.213Z,5.03
2018-04-23T21:12:57.837Z,5.07
2018-04-23T21:15:25.351Z,5.47
2018-04-23T21:17:52.959Z,5.43
2018-04-23T21:20:20.518Z,6.23
2018-04-23T21:22:48.036Z,5.97
2018-04-23T21:25:15.556Z,5.90
2018-04-23T21:27:43.191Z,5.23
2018-04-23T21:30:10.753Z,5.50
2018-04-23T21:32:38.316Z,5.57
2018-04-23T21:35:05.837Z,5.57
2018-04-23T21:37:33.455Z,5.10
2018-04-23T21:40:00.975Z,5.80
2018-04-23T21:42:28.514Z,5.57
2018-04-23T21:44:56.051Z,5.33
2018-04-23T21:47:23.560Z,4.73
2018-04-23T21:49:51.069Z,5.43
2018-04-23T21:52:18.574Z,4.77
2018-04-23T21:54:46.144Z,5.63
2018-04-23T21:57:13.712Z,4.93
2018-04-23T21:59:41.227Z,5.00
2018-04-23T22:02:08.763Z,4.97
2018-04-23T22:04:36.291Z,5.07
2018-04-23T22:07:03.799Z,5.23
2018-04-23T22:09:31.346Z,5.33
2018-04-23T22:11:58.866Z,5.23
2018-04-23T22:14:26.422Z,5.50
2018-04-23T22:16:53.953Z,5.60
2018-04-23T22:19:21.476Z,5.60
2018-04-23T22:21:49.005Z,5.33
2018-04-23T22:24:16.522Z,5.60
2018-04-23T22:26:44.043Z,5.77
2018-04-23T22:29:11.569Z,5.57
2018-04-23T22:31:39.123Z,5.20
2018-04-23T22:34:06.696Z,5.90
2018-04-23T22:36:34.206Z,5.67
2018-04-23T22:39:01.725Z,6.10
2018-04-23T22:41:29.245Z,5.83
2018-04-23T22:43:56.840Z,5.90
2018-04-23T22:46:24.346Z,5.47
2018-04-23T22:48:51.857Z,5.90
2018-04-23T22:51:19.371Z,5.33
2018-04-23T22:53:46.923Z,5.70
2018-04-23T22:56:14.451Z,5.57
2018-04-23T22:58:41.969Z,5.33
2018-04-23T23:01:09.470Z,5.50
2018-04-23T23:03:36.975Z,5.60
2018-04-23T23:06:04.562Z,4.90
2018-04-23T23:08:32.111Z,5.47
2018-04-23T23:10:59.675Z,4.93
2018-04-23T23:13:27.252Z,5.43
2018-04-23T23:15:54.758Z,4.90
2018-04-23T23:18:22.290Z,5.47
2018-04-23T23:20:49.793Z,4.93
2018-04-23T23:23:17.317Z,5.13
2018-04-23T23:25:44.845Z,5.83
2018-04-23T23:28:12.391Z,5.17
2018-04-23T23:30:39.951Z,5.37
2018-04-23T23:33:07.483Z,5.33
2018-04-23T23:35:35.099Z,5.43
2018-04-23T23:38:02.614Z,5.73
2018-04-23T23:40:30.141Z,5.40
2018-04-23T23:42:57.787Z,4.93
2018-04-23T23:45:25.312Z,5.80
2018-04-23T23:47:52.838Z,6.03
2018-04-23T23:50:20.387Z,5.50
2018-04-23T23:52:47.931Z,5.50
2018-04-23T23:55:15.459Z,5.50
2018-04-23T23:57:42.986Z,5.63
